sensor_id;sensor_type;location;lat;lon;timestamp;pressure;altitude;pressure_sealevel;temperature;humidity
46448;BME280;32145;50.390;30.778;2023-07-31T00:00:47;99374.94;;;17.89;76.97
46448;BME280;32145;50.390;30.778;2023-07-31T00:03:42;99368.41;;;17.85;77.05
46448;BME280;32145;50.390;30.778;2023-07-31T00:06:36;99361.88;;;17.81;77.00
46448;BME280;32145;50.390;30.778;2023-07-31T00:09:30;99366.34;;;17.77;76.95
46448;BME280;32145;50.390;30.778;2023-07-31T00:12:25;99365.25;;;17.73;76.96
46448;BME280;32145;50.390;30.778;2023-07-31T00:15:19;99366.38;;;17.72;76.99
46448;BME280;32145;50.390;30.778;2023-07-31T00:18:15;99362.00;;;17.71;76.98
46448;BME280;32145;50.390;30.778;2023-07-31T00:21:09;99360.97;;;17.67;77.23
46448;BME280;32145;50.390;30.778;2023-07-31T00:24:04;99350.59;;;17.63;77.26
46448;BME280;32145;50.390;30.778;2023-07-31T00:26:59;99347.03;;;17.63;77.17
46448;BME280;32145;50.390;30.778;2023-07-31T00:29:53;99348.38;;;17.65;77.16
46448;BME280;32145;50.390;30.778;2023-07-31T00:32:47;99349.47;;;17.64;77.40
46448;BME280;32145;50.390;30.778;2023-07-31T00:35:43;99349.75;;;17.63;77.38
46448;BME280;32145;50.390;30.778;2023-07-31T00:38:37;99345.69;;;17.60;77.26
46448;BME280;32145;50.390;30.778;2023-07-31T00:41:32;99347.34;;;17.61;77.34
46448;BME280;32145;50.390;30.778;2023-07-31T00:44:26;99338.78;;;17.63;77.49
46448;BME280;32145;50.390;30.778;2023-07-31T00:47:20;99344.00;;;17.64;77.36
46448;BME280;32145;50.390;30.778;2023-07-31T00:50:17;99339.34;;;17.65;77.49
46448;BME280;32145;50.390;30.778;2023-07-31T00:53:14;99336.59;;;17.65;77.27
46448;BME280;32145;50.390;30.778;2023-07-31T00:56:11;99335.75;;;17.64;77.24
46448;BME280;32145;50.390;30.778;2023-07-31T00:59:07;99339.63;;;17.63;77.21
46448;BME280;32145;50.390;30.778;2023-07-31T01:02:04;99345.41;;;17.62;77.17
46448;BME280;32145;50.390;30.778;2023-07-31T01:05:01;99340.22;;;17.60;77.09
46448;BME280;32145;50.390;30.778;2023-07-31T01:08:04;99341.31;;;17.59;77.16
46448;BME280;32145;50.390;30.778;2023-07-31T01:11:14;99351.25;;;17.55;77.21
46448;BME280;32145;50.390;30.778;2023-07-31T01:14:11;99352.94;;;17.51;77.27
46448;BME280;32145;50.390;30.778;2023-07-31T01:17:07;99348.03;;;17.48;77.29
46448;BME280;32145;50.390;30.778;2023-07-31T01:20:06;99349.66;;;17.49;77.40
46448;BME280;32145;50.390;30.778;2023-07-31T01:23:22;99355.69;;;17.51;77.99
46448;BME280;32145;50.390;30.778;2023-07-31T01:26:26;99354.91;;;17.45;77.80
46448;BME280;32145;50.390;30.778;2023-07-31T01:29:29;99360.69;;;17.44;77.63
46448;BME280;32145;50.390;30.778;2023-07-31T01:32:29;99358.03;;;17.38;77.64
46448;BME280;32145;50.390;30.778;2023-07-31T01:35:25;99363.78;;;17.37;77.57
46448;BME280;32145;50.390;30.778;2023-07-31T01:38:22;99354.22;;;17.34;77.48
46448;BME280;32145;50.390;30.778;2023-07-31T01:41:18;99348.22;;;17.32;77.63
46448;BME280;32145;50.390;30.778;2023-07-31T01:44:15;99353.19;;;17.30;77.43
46448;BME280;32145;50.390;30.778;2023-07-31T01:47:12;99355.97;;;17.25;77.55
46448;BME280;32145;50.390;30.778;2023-07-31T01:50:09;99354.91;;;17.21;77.32
46448;BME280;32145;50.390;30.778;2023-07-31T01:53:05;99354.69;;;17.17;77.22
46448;BME280;32145;50.390;30.778;2023-07-31T01:56:02;99351.72;;;17.13;77.41
46448;BME280;32145;50.390;30.778;2023-07-31T01:58:58;99355.03;;;17.10;77.60
46448;BME280;32145;50.390;30.778;2023-07-31T02:01:55;99349.56;;;17.10;77.38
46448;BME280;32145;50.390;30.778;2023-07-31T02:04:52;99348.75;;;17.10;77.51
46448;BME280;32145;50.390;30.778;2023-07-31T02:07:48;99354.50;;;17.08;77.66
46448;BME280;32145;50.390;30.778;2023-07-31T02:10:45;99351.78;;;17.08;77.55
46448;BME280;32145;50.390;30.778;2023-07-31T02:13:41;99354.00;;;17.06;77.26
46448;BME280;32145;50.390;30.778;2023-07-31T02:16:37;99356.72;;;17.06;77.43
46448;BME280;32145;50.390;30.778;2023-07-31T02:19:35;99351.78;;;17.08;77.62
46448;BME280;32145;50.390;30.778;2023-07-31T02:22:29;99355.63;;;17.07;77.75
46448;BME280;32145;50.390;30.778;2023-07-31T02:25:23;99360.81;;;17.09;77.51
46448;BME280;32145;50.390;30.778;2023-07-31T02:28:18;99352.59;;;17.09;77.60
46448;BME280;32145;50.390;30.778;2023-07-31T02:31:12;99347.34;;;17.12;77.80
46448;BME280;32145;50.390;30.778;2023-07-31T02:34:07;99354.91;;;17.21;77.96
46448;BME280;32145;50.390;30.778;2023-07-31T02:37:03;99355.38;;;17.28;78.33
46448;BME280;32145;50.390;30.778;2023-07-31T02:39:57;99349.03;;;17.33;78.40
46448;BME280;32145;50.390;30.778;2023-07-31T02:42:51;99346.69;;;17.45;78.45
46448;BME280;32145;50.390;30.778;2023-07-31T02:45:51;99350.88;;;17.62;78.47
46448;BME280;32145;50.390;30.778;2023-07-31T02:48:47;99356.44;;;17.76;78.46
46448;BME280;32145;50.390;30.778;2023-07-31T02:51:43;99350.84;;;17.86;78.56
46448;BME280;32145;50.390;30.778;2023-07-31T02:54:41;99352.63;;;17.96;78.75
46448;BME280;32145;50.390;30.778;2023-07-31T02:57:37;99350.03;;;18.05;78.95
46448;BME280;32145;50.390;30.778;2023-07-31T03:00:33;99350.50;;;18.12;78.88
46448;BME280;32145;50.390;30.778;2023-07-31T03:03:27;99347.44;;;18.14;78.95
46448;BME280;32145;50.390;30.778;2023-07-31T03:06:22;99349.91;;;18.15;79.07
46448;BME280;32145;50.390;30.778;2023-07-31T03:09:16;99354.78;;;18.19;79.35
46448;BME280;32145;50.390;30.778;2023-07-31T03:12:12;99358.06;;;18.21;79.59
46448;BME280;32145;50.390;30.778;2023-07-31T03:15:07;99362.94;;;18.24;79.55
46448;BME280;32145;50.390;30.778;2023-07-31T03:18:02;99363.75;;;18.24;79.77
46448;BME280;32145;50.390;30.778;2023-07-31T03:20:58;99369.53;;;18.23;79.93
46448;BME280;32145;50.390;30.778;2023-07-31T03:23:54;99371.69;;;18.26;80.21
46448;BME280;32145;50.390;30.778;2023-07-31T03:26:49;99365.00;;;18.32;80.21
46448;BME280;32145;50.390;30.778;2023-07-31T03:29:45;99373.19;;;18.37;80.60
46448;BME280;32145;50.390;30.778;2023-07-31T03:32:39;99374.22;;;18.41;80.63
46448;BME280;32145;50.390;30.778;2023-07-31T03:35:33;99375.53;;;18.44;80.60
46448;BME280;32145;50.390;30.778;2023-07-31T03:38:28;99370.53;;;18.46;80.51
46448;BME280;32145;50.390;30.778;2023-07-31T03:41:22;99370.53;;;18.46;80.83
46448;BME280;32145;50.390;30.778;2023-07-31T03:44:18;99371.56;;;18.50;80.91
46448;BME280;32145;50.390;30.778;2023-07-31T03:47:16;99375.69;;;18.53;80.65
46448;BME280;32145;50.390;30.778;2023-07-31T03:50:10;99378.94;;;18.55;80.82
46448;BME280;32145;50.390;30.778;2023-07-31T03:53:04;99375.06;;;18.56;80.81
46448;BME280;32145;50.390;30.778;2023-07-31T03:55:59;99383.81;;;18.58;81.04
46448;BME280;32145;50.390;30.778;2023-07-31T03:58:53;99381.56;;;18.60;80.77
46448;BME280;32145;50.390;30.778;2023-07-31T04:01:48;99384.25;;;18.65;80.91
46448;BME280;32145;50.390;30.778;2023-07-31T04:04:43;99387.63;;;18.76;80.96
46448;BME280;32145;50.390;30.778;2023-07-31T04:07:38;99381.16;;;18.86;80.78
46448;BME280;32145;50.390;30.778;2023-07-31T04:10:32;99370.91;;;18.92;80.68
46448;BME280;32145;50.390;30.778;2023-07-31T04:13:26;99375.56;;;18.91;80.35
46448;BME280;32145;50.390;30.778;2023-07-31T04:16:20;99376.88;;;18.94;80.50
46448;BME280;32145;50.390;30.778;2023-07-31T04:19:15;99381.47;;;18.99;80.51
46448;BME280;32145;50.390;30.778;2023-07-31T04:22:10;99388.59;;;19.00;80.18
46448;BME280;32145;50.390;30.778;2023-07-31T04:25:05;99402.03;;;19.01;80.43
46448;BME280;32145;50.390;30.778;2023-07-31T04:27:59;99407.75;;;19.05;80.49
46448;BME280;32145;50.390;30.778;2023-07-31T04:30:54;99414.00;;;19.11;80.25
46448;BME280;32145;50.390;30.778;2023-07-31T04:33:48;99411.44;;;19.14;80.20
46448;BME280;32145;50.390;30.778;2023-07-31T04:36:43;99412.47;;;19.18;80.09
46448;BME280;32145;50.390;30.778;2023-07-31T04:39:40;99413.19;;;19.24;80.33
46448;BME280;32145;50.390;30.778;2023-07-31T04:42:36;99411.78;;;19.27;80.15
46448;BME280;32145;50.390;30.778;2023-07-31T04:45:33;99421.63;;;19.28;80.15
46448;BME280;32145;50.390;30.778;2023-07-31T04:48:29;99418.59;;;19.29;80.01
46448;BME280;32145;50.390;30.778;2023-07-31T04:51:25;99425.94;;;19.34;79.86
46448;BME280;32145;50.390;30.778;2023-07-31T04:54:19;99420.44;;;19.34;79.82
46448;BME280;32145;50.390;30.778;2023-07-31T04:57:15;99417.88;;;19.38;80.13
46448;BME280;32145;50.390;30.778;2023-07-31T05:00:12;99431.25;;;19.44;79.94
46448;BME280;32145;50.390;30.778;2023-07-31T05:03:08;99431.63;;;19.52;79.82
46448;BME280;32145;50.390;30.778;2023-07-31T05:06:04;99438.25;;;19.51;79.44
46448;BME280;32145;50.390;30.778;2023-07-31T05:09:01;99439.38;;;19.50;79.51
46448;BME280;32145;50.390;30.778;2023-07-31T05:11:57;99448.34;;;19.55;79.41
46448;BME280;32145;50.390;30.778;2023-07-31T05:14:54;99450.19;;;19.60;79.66
46448;BME280;32145;50.390;30.778;2023-07-31T05:17:51;99454.47;;;19.66;79.37
46448;BME280;32145;50.390;30.778;2023-07-31T05:20:47;99444.16;;;19.72;79.60
46448;BME280;32145;50.390;30.778;2023-07-31T05:23:43;99449.38;;;19.74;79.17
46448;BME280;32145;50.390;30.778;2023-07-31T05:26:40;99447.94;;;19.76;79.21
46448;BME280;32145;50.390;30.778;2023-07-31T05:29:36;99453.66;;;19.80;79.06
46448;BME280;32145;50.390;30.778;2023-07-31T05:32:32;99464.03;;;19.83;78.92
46448;BME280;32145;50.390;30.778;2023-07-31T05:35:26;99449.78;;;19.81;78.49
46448;BME280;32145;50.390;30.778;2023-07-31T05:38:20;99450.78;;;19.85;78.84
46448;BME280;32145;50.390;30.778;2023-07-31T05:41:15;99452.81;;;19.93;78.66
46448;BME280;32145;50.390;30.778;2023-07-31T05:44:11;99451.53;;;20.05;78.58
46448;BME280;32145;50.390;30.778;2023-07-31T05:47:07;99448.94;;;20.08;78.12
46448;BME280;32145;50.390;30.778;2023-07-31T05:50:05;99454.97;;;20.11;78.24
46448;BME280;32145;50.390;30.778;2023-07-31T05:53:02;99453.41;;;20.18;78.20
46448;BME280;32145;50.390;30.778;2023-07-31T05:55:58;99453.81;;;20.26;78.04
46448;BME280;32145;50.390;30.778;2023-07-31T05:58:54;99448.94;;;20.22;77.59
46448;BME280;32145;50.390;30.778;2023-07-31T06:01:51;99446.47;;;20.21;77.44
46448;BME280;32145;50.390;30.778;2023-07-31T06:04:47;99447.69;;;20.29;77.47
46448;BME280;32145;50.390;30.778;2023-07-31T06:07:43;99460.53;;;20.33;77.11
46448;BME280;32145;50.390;30.778;2023-07-31T06:10:37;99454.41;;;20.37;77.09
46448;BME280;32145;50.390;30.778;2023-07-31T06:13:31;99461.84;;;20.36;77.15
46448;BME280;32145;50.390;30.778;2023-07-31T06:16:26;99460.72;;;20.37;77.03
46448;BME280;32145;50.390;30.778;2023-07-31T06:19:20;99455.84;;;20.34;76.72
46448;BME280;32145;50.390;30.778;2023-07-31T06:22:14;99464.78;;;20.40;77.06
46448;BME280;32145;50.390;30.778;2023-07-31T06:25:12;99473.13;;;20.48;77.08
46448;BME280;32145;50.390;30.778;2023-07-31T06:28:08;99467.19;;;20.55;77.03
46448;BME280;32145;50.390;30.778;2023-07-31T06:31:04;99476.16;;;20.61;76.55
46448;BME280;32145;50.390;30.778;2023-07-31T06:34:01;99469.03;;;20.60;76.54
46448;BME280;32145;50.390;30.778;2023-07-31T06:36:57;99470.66;;;20.61;76.34
46448;BME280;32145;50.390;30.778;2023-07-31T06:39:51;99475.09;;;20.71;76.42
46448;BME280;32145;50.390;30.778;2023-07-31T06:42:47;99472.41;;;20.80;76.22
46448;BME280;32145;50.390;30.778;2023-07-31T06:45:42;99475.03;;;20.85;76.08
46448;BME280;32145;50.390;30.778;2023-07-31T06:48:36;99469.44;;;20.90;75.71
46448;BME280;32145;50.390;30.778;2023-07-31T06:51:30;99469.44;;;20.90;75.69
46448;BME280;32145;50.390;30.778;2023-07-31T06:54:25;99470.44;;;20.94;75.75
46448;BME280;32145;50.390;30.778;2023-07-31T06:57:21;99466.56;;;20.95;75.81
46448;BME280;32145;50.390;30.778;2023-07-31T07:00:20;99466.06;;;20.93;75.52
46448;BME280;32145;50.390;30.778;2023-07-31T07:03:17;99468.66;;;20.98;75.71
46448;BME280;32145;50.390;30.778;2023-07-31T07:06:14;99467.69;;;20.94;75.51
46448;BME280;32145;50.390;30.778;2023-07-31T07:09:10;99469.63;;;20.94;75.41
46448;BME280;32145;50.390;30.778;2023-07-31T07:12:07;99481.59;;;20.89;75.45
46448;BME280;32145;50.390;30.778;2023-07-31T07:15:04;99478.31;;;20.87;75.39
46448;BME280;32145;50.390;30.778;2023-07-31T07:18:02;99473.84;;;20.91;75.69
46448;BME280;32145;50.390;30.778;2023-07-31T07:20:58;99469.34;;;21.04;75.41
46448;BME280;32145;50.390;30.778;2023-07-31T07:23:54;99474.31;;;21.16;75.25
46448;BME280;32145;50.390;30.778;2023-07-31T07:26:51;99468.66;;;21.21;74.86
46448;BME280;32145;50.390;30.778;2023-07-31T07:29:49;99473.84;;;21.23;74.77
46448;BME280;32145;50.390;30.778;2023-07-31T07:32:46;99470.41;;;21.17;74.59
46448;BME280;32145;50.390;30.778;2023-07-31T07:35:42;99475.75;;;21.14;74.67
46448;BME280;32145;50.390;30.778;2023-07-31T07:38:36;99478.19;;;21.15;74.58
46448;BME280;32145;50.390;30.778;2023-07-31T07:41:30;99473.69;;;21.19;74.44
46448;BME280;32145;50.390;30.778;2023-07-31T07:44:25;99471.94;;;21.32;74.48
46448;BME280;32145;50.390;30.778;2023-07-31T07:47:19;99481.72;;;21.38;73.85
46448;BME280;32145;50.390;30.778;2023-07-31T07:50:13;99476.38;;;21.42;73.79
46448;BME280;32145;50.390;30.778;2023-07-31T07:53:09;99480.31;;;21.50;73.30
46448;BME280;32145;50.390;30.778;2023-07-31T07:56:03;99464.34;;;21.70;73.12
46448;BME280;32145;50.390;30.778;2023-07-31T07:58:57;99475.66;;;21.91;72.63
46448;BME280;32145;50.390;30.778;2023-07-31T08:01:52;99470.47;;;21.98;71.65
46448;BME280;32145;50.390;30.778;2023-07-31T08:04:46;99469.03;;;22.10;71.28
46448;BME280;32145;50.390;30.778;2023-07-31T08:07:43;99468.25;;;22.27;71.07
46448;BME280;32145;50.390;30.778;2023-07-31T08:10:40;99471.19;;;22.48;70.60
46448;BME280;32145;50.390;30.778;2023-07-31T08:13:37;99465.03;;;22.69;69.70
46448;BME280;32145;50.390;30.778;2023-07-31T08:16:33;99464.41;;;22.81;69.21
46448;BME280;32145;50.390;30.778;2023-07-31T08:19:29;99470.72;;;22.90;68.47
46448;BME280;32145;50.390;30.778;2023-07-31T08:22:26;99473.78;;;23.07;68.33
46448;BME280;32145;50.390;30.778;2023-07-31T08:25:22;99464.66;;;23.15;67.78
46448;BME280;32145;50.390;30.778;2023-07-31T08:28:20;99480.59;;;23.18;66.58
46448;BME280;32145;50.390;30.778;2023-07-31T08:31:16;99474.25;;;23.26;66.85
46448;BME280;32145;50.390;30.778;2023-07-31T08:34:12;99476.66;;;23.37;66.41
46448;BME280;32145;50.390;30.778;2023-07-31T08:37:09;99481.84;;;23.47;65.91
46448;BME280;32145;50.390;30.778;2023-07-31T08:40:06;99482.63;;;23.56;65.48
46448;BME280;32145;50.390;30.778;2023-07-31T08:43:02;99484.53;;;23.65;65.63
46448;BME280;32145;50.390;30.778;2023-07-31T08:46:01;99488.09;;;23.74;65.43
46448;BME280;32145;50.390;30.778;2023-07-31T08:48:58;99481.31;;;23.93;64.79
46448;BME280;32145;50.390;30.778;2023-07-31T08:51:54;99483.50;;;24.08;64.49
46448;BME280;32145;50.390;30.778;2023-07-31T08:54:48;99480.06;;;24.20;63.89
46448;BME280;32145;50.390;30.778;2023-07-31T08:57:43;99485.63;;;24.42;63.28
46448;BME280;32145;50.390;30.778;2023-07-31T09:00:38;99486.91;;;24.66;62.23
46448;BME280;32145;50.390;30.778;2023-07-31T09:03:37;99489.78;;;24.69;60.84
46448;BME280;32145;50.390;30.778;2023-07-31T09:06:35;99491.16;;;24.63;60.33
46448;BME280;32145;50.390;30.778;2023-07-31T09:09:32;99495.47;;;24.52;59.88
46448;BME280;32145;50.390;30.778;2023-07-31T09:12:28;99494.94;;;24.58;59.85
46448;BME280;32145;50.390;30.778;2023-07-31T09:15:24;99494.94;;;24.58;59.77
46448;BME280;32145;50.390;30.778;2023-07-31T09:18:21;99496.28;;;24.52;60.11
46448;BME280;32145;50.390;30.778;2023-07-31T09:21:19;99497.91;;;24.53;60.10
46448;BME280;32145;50.390;30.778;2023-07-31T09:24:24;99501.47;;;24.54;60.03
46448;BME280;32145;50.390;30.778;2023-07-31T09:27:21;99491.06;;;24.72;59.54
46448;BME280;32145;50.390;30.778;2023-07-31T09:30:18;99496.50;;;24.90;59.57
46448;BME280;32145;50.390;30.778;2023-07-31T09:33:14;99494.88;;;24.89;58.16
46448;BME280;32145;50.390;30.778;2023-07-31T09:36:11;99497.03;;;24.83;58.15
46448;BME280;32145;50.390;30.778;2023-07-31T09:39:10;99500.06;;;24.90;58.23
46448;BME280;32145;50.390;30.778;2023-07-31T09:42:07;99502.31;;;24.97;58.35
46448;BME280;32145;50.390;30.778;2023-07-31T09:45:10;99502.91;;;24.81;58.18
46448;BME280;32145;50.390;30.778;2023-07-31T09:48:07;99499.53;;;24.54;58.11
46448;BME280;32145;50.390;30.778;2023-07-31T09:51:04;99496.47;;;24.47;58.58
46448;BME280;32145;50.390;30.778;2023-07-31T09:54:00;99489.72;;;24.36;58.45
46448;BME280;32145;50.390;30.778;2023-07-31T09:56:59;99487.81;;;24.27;58.64
46448;BME280;32145;50.390;30.778;2023-07-31T09:59:56;99493.56;;;24.22;59.37
46448;BME280;32145;50.390;30.778;2023-07-31T10:02:54;99493.84;;;24.29;59.79
46448;BME280;32145;50.390;30.778;2023-07-31T10:05:53;99487.09;;;24.39;59.49
46448;BME280;32145;50.390;30.778;2023-07-31T10:08:51;99494.00;;;24.54;59.02
46448;BME280;32145;50.390;30.778;2023-07-31T10:11:53;99495.75;;;24.59;58.32
46448;BME280;32145;50.390;30.778;2023-07-31T10:14:54;99497.75;;;24.71;58.57
46448;BME280;32145;50.390;30.778;2023-07-31T10:17:49;99496.41;;;24.77;58.50
46448;BME280;32145;50.390;30.778;2023-07-31T10:20:33;99492.13;;;24.89;58.51
46448;BME280;32145;50.390;30.778;2023-07-31T10:23:30;99493.13;;;25.18;58.00
46448;BME280;32145;50.390;30.778;2023-07-31T10:26:25;99487.03;;;25.37;56.87
46448;BME280;32145;50.390;30.778;2023-07-31T10:29:21;99492.84;;;25.44;56.79
46448;BME280;32145;50.390;30.778;2023-07-31T10:32:17;99490.19;;;25.48;56.19
46448;BME280;32145;50.390;30.778;2023-07-31T10:35:12;99482.59;;;25.57;56.09
46448;BME280;32145;50.390;30.778;2023-07-31T10:38:12;99488.16;;;25.82;56.26
46448;BME280;32145;50.390;30.778;2023-07-31T10:41:09;99484.47;;;25.91;55.76
46448;BME280;32145;50.390;30.778;2023-07-31T10:44:07;99491.88;;;25.74;53.93
46448;BME280;32145;50.390;30.778;2023-07-31T10:47:03;99495.22;;;25.80;54.79
46448;BME280;32145;50.390;30.778;2023-07-31T10:50:16;99499.94;;;25.79;53.69
46448;BME280;32145;50.390;30.778;2023-07-31T10:53:22;99495.31;;;25.83;54.54
46448;BME280;32145;50.390;30.778;2023-07-31T10:56:19;99495.22;;;25.92;54.97
46448;BME280;32145;50.390;30.778;2023-07-31T10:59:15;99489.31;;;25.94;54.66
46448;BME280;32145;50.390;30.778;2023-07-31T11:02:24;99501.34;;;25.98;55.10
46448;BME280;32145;50.390;30.778;2023-07-31T11:05:41;99499.25;;;25.95;55.34
46448;BME280;32145;50.390;30.778;2023-07-31T11:08:41;99499.59;;;25.93;54.54
46448;BME280;32145;50.390;30.778;2023-07-31T11:11:36;99490.59;;;25.84;54.54
46448;BME280;32145;50.390;30.778;2023-07-31T11:14:30;99490.94;;;25.70;54.41
46448;BME280;32145;50.390;30.778;2023-07-31T11:17:25;99492.03;;;25.44;53.17
46448;BME280;32145;50.390;30.778;2023-07-31T11:20:21;99483.94;;;25.39;53.85
46448;BME280;32145;50.390;30.778;2023-07-31T11:23:16;99481.09;;;25.60;54.09
46448;BME280;32145;50.390;30.778;2023-07-31T11:26:11;99471.75;;;25.77;53.17
46448;BME280;32145;50.390;30.778;2023-07-31T11:28:56;99467.94;;;25.94;53.24
46448;BME280;32145;50.390;30.778;2023-07-31T11:31:52;99469.44;;;26.04;53.30
46448;BME280;32145;50.390;30.778;2023-07-31T11:34:52;99468.94;;;26.15;53.82
46448;BME280;32145;50.390;30.778;2023-07-31T11:37:49;99471.72;;;26.15;53.69
46448;BME280;32145;50.390;30.778;2023-07-31T11:40:46;99463.72;;;26.13;53.89
46448;BME280;32145;50.390;30.778;2023-07-31T11:43:40;99466.75;;;26.08;53.75
46448;BME280;32145;50.390;30.778;2023-07-31T11:46:35;99450.19;;;25.99;53.73
46448;BME280;32145;50.390;30.778;2023-07-31T11:49:30;99456.00;;;25.94;53.67
46448;BME280;32145;50.390;30.778;2023-07-31T11:52:27;99457.75;;;25.86;53.47
46448;BME280;32145;50.390;30.778;2023-07-31T11:55:26;99457.50;;;25.91;53.44
46448;BME280;32145;50.390;30.778;2023-07-31T11:58:22;99457.16;;;25.93;53.14
46448;BME280;32145;50.390;30.778;2023-07-31T12:01:21;99456.69;;;25.91;53.43
46448;BME280;32145;50.390;30.778;2023-07-31T12:04:18;99456.34;;;25.92;53.59
46448;BME280;32145;50.390;30.778;2023-07-31T12:07:14;99440.50;;;26.05;53.56
46448;BME280;32145;50.390;30.778;2023-07-31T12:10:11;99446.13;;;26.09;53.03
46448;BME280;32145;50.390;30.778;2023-07-31T12:13:09;99446.13;;;26.21;52.73
46448;BME280;32145;50.390;30.778;2023-07-31T12:16:06;99442.78;;;26.28;52.36
46448;BME280;32145;50.390;30.778;2023-07-31T12:19:04;99442.78;;;26.28;51.60
46448;BME280;32145;50.390;30.778;2023-07-31T12:22:01;99439.84;;;26.37;51.95
46448;BME280;32145;50.390;30.778;2023-07-31T12:24:56;99445.97;;;26.43;51.85
46448;BME280;32145;50.390;30.778;2023-07-31T12:27:50;99442.59;;;26.49;51.43
46448;BME280;32145;50.390;30.778;2023-07-31T12:30:46;99443.72;;;26.61;51.32
46448;BME280;32145;50.390;30.778;2023-07-31T12:33:42;99447.88;;;26.67;51.21
46448;BME280;32145;50.390;30.778;2023-07-31T12:36:39;99446.69;;;26.68;50.65
46448;BME280;32145;50.390;30.778;2023-07-31T12:39:34;99447.53;;;26.69;50.54
46448;BME280;32145;50.390;30.778;2023-07-31T12:42:30;99441.75;;;26.61;50.40
46448;BME280;32145;50.390;30.778;2023-07-31T12:45:24;99443.47;;;26.66;50.67
46448;BME280;32145;50.390;30.778;2023-07-31T12:48:20;99437.38;;;26.60;50.27
46448;BME280;32145;50.390;30.778;2023-07-31T12:51:14;99435.34;;;26.45;50.14
46448;BME280;32145;50.390;30.778;2023-07-31T12:54:08;99439.41;;;26.22;50.31
46448;BME280;32145;50.390;30.778;2023-07-31T12:57:03;99444.06;;;26.06;50.37
46448;BME280;32145;50.390;30.778;2023-07-31T12:59:57;99439.59;;;25.89;50.90
46448;BME280;32145;50.390;30.778;2023-07-31T13:02:52;99439.13;;;25.86;50.73
46448;BME280;32145;50.390;30.778;2023-07-31T13:05:47;99437.94;;;25.87;50.67
46448;BME280;32145;50.390;30.778;2023-07-31T13:08:41;99438.44;;;25.90;50.72
46448;BME280;32145;50.390;30.778;2023-07-31T13:11:36;99436.22;;;25.95;50.58
46448;BME280;32145;50.390;30.778;2023-07-31T13:14:30;99428.25;;;25.94;49.82
46448;BME280;32145;50.390;30.778;2023-07-31T13:17:27;99425.91;;;25.96;50.30
46448;BME280;32145;50.390;30.778;2023-07-31T13:20:24;99423.13;;;25.96;50.29
46448;BME280;32145;50.390;30.778;2023-07-31T13:23:21;99432.53;;;25.79;50.42
46448;BME280;32145;50.390;30.778;2023-07-31T13:26:12;99428.50;;;25.76;50.50
46448;BME280;32145;50.390;30.778;2023-07-31T13:29:06;99432.88;;;25.77;50.59
46448;BME280;32145;50.390;30.778;2023-07-31T13:32:00;99428.25;;;25.81;50.82
46448;BME280;32145;50.390;30.778;2023-07-31T13:34:57;99433.09;;;25.72;50.30
46448;BME280;32145;50.390;30.778;2023-07-31T13:37:53;99440.75;;;25.63;50.67
46448;BME280;32145;50.390;30.778;2023-07-31T13:40:51;99442.25;;;25.60;51.06
46448;BME280;32145;50.390;30.778;2023-07-31T13:43:47;99444.41;;;25.54;51.26
46448;BME280;32145;50.390;30.778;2023-07-31T13:46:43;99435.84;;;25.47;51.30
46448;BME280;32145;50.390;30.778;2023-07-31T13:49:40;99439.19;;;25.40;51.40
46448;BME280;32145;50.390;30.778;2023-07-31T13:52:36;99436.75;;;25.39;51.75
46448;BME280;32145;50.390;30.778;2023-07-31T13:55:33;99441.28;;;25.43;51.91
46448;BME280;32145;50.390;30.778;2023-07-31T13:58:30;99448.78;;;25.43;52.11
46448;BME280;32145;50.390;30.778;2023-07-31T14:01:27;99450.28;;;25.40;52.36
46448;BME280;32145;50.390;30.778;2023-07-31T14:04:23;99448.78;;;25.30;52.34
46448;BME280;32145;50.390;30.778;2023-07-31T14:07:17;99455.25;;;25.22;52.74
46448;BME280;32145;50.390;30.778;2023-07-31T14:10:12;99453.84;;;25.28;52.62
46448;BME280;32145;50.390;30.778;2023-07-31T14:13:06;99445.31;;;25.33;52.96
46448;BME280;32145;50.390;30.778;2023-07-31T14:16:02;99442.31;;;25.39;52.97
46448;BME280;32145;50.390;30.778;2023-07-31T14:18:56;99446.25;;;25.38;53.06
46448;BME280;32145;50.390;30.778;2023-07-31T14:21:50;99450.63;;;25.26;52.58
46448;BME280;32145;50.390;30.778;2023-07-31T14:24:46;99454.97;;;25.15;52.57
46448;BME280;32145;50.390;30.778;2023-07-31T14:27:41;99454.47;;;25.00;53.20
46448;BME280;32145;50.390;30.778;2023-07-31T14:30:37;99460.25;;;24.95;53.37
46448;BME280;32145;50.390;30.778;2023-07-31T14:33:35;99454.91;;;24.90;53.43
46448;BME280;32145;50.390;30.778;2023-07-31T14:36:31;99457.22;;;24.88;54.22
46448;BME280;32145;50.390;30.778;2023-07-31T14:39:27;99456.47;;;24.78;54.22
46448;BME280;32145;50.390;30.778;2023-07-31T14:42:24;99450.88;;;24.66;54.25
46448;BME280;32145;50.390;30.778;2023-07-31T14:45:20;99452.22;;;24.59;54.99
46448;BME280;32145;50.390;30.778;2023-07-31T14:48:16;99445.63;;;24.52;54.61
46448;BME280;32145;50.390;30.778;2023-07-31T14:51:14;99443.72;;;24.43;54.65
46448;BME280;32145;50.390;30.778;2023-07-31T14:54:10;99445.19;;;24.41;55.20
46448;BME280;32145;50.390;30.778;2023-07-31T14:57:08;99444.53;;;24.44;55.39
46448;BME280;32145;50.390;30.778;2023-07-31T15:00:06;99434.59;;;24.43;55.66
46448;BME280;32145;50.390;30.778;2023-07-31T15:03:03;99439.81;;;24.44;56.04
46448;BME280;32145;50.390;30.778;2023-07-31T15:05:59;99430.06;;;24.38;55.90
46448;BME280;32145;50.390;30.778;2023-07-31T15:08:57;99435.47;;;24.35;56.37
46448;BME280;32145;50.390;30.778;2023-07-31T15:11:53;99436.31;;;24.35;56.86
46448;BME280;32145;50.390;30.778;2023-07-31T15:14:49;99441.47;;;24.37;57.08
46448;BME280;32145;50.390;30.778;2023-07-31T15:17:46;99455.31;;;24.37;57.80
46448;BME280;32145;50.390;30.778;2023-07-31T15:20:42;99448.16;;;24.36;57.75